Terminal Aerodrome Forecast
Issued by NWS

Home | Current Version | Previous Version | Graphics & Text | Print | Product List | Glossary On
Versions: 1 2 3 4 5 6 7 8 9 10 11 12 13 14 15
000
FTUS43 KOAX 181300 AAA
TAFCDR
TAF AMD
KCDR 181340Z 1814/1912 24005KT P6SM SKC
     FM181500 36010KT P6SM BKN060
     FM181900 35010G20KT P6SM VCTS BKN060CB
     FM190200 11007KT P6SM SCT060=

USA.gov is the U.S. government's official web portal to all federal, state and local government web resources and services.